sensor_id;sensor_type;location;lat;lon;timestamp;temperature;humidity
27114;DHT22;14648;49.730;8.614;2023-09-19T00:01:33;18.50;65.50
27114;DHT22;14648;49.730;8.614;2023-09-19T00:03:59;18.50;65.50
27114;DHT22;14648;49.730;8.614;2023-09-19T00:06:28;18.50;65.60
27114;DHT22;14648;49.730;8.614;2023-09-19T00:08:57;18.50;65.70
27114;DHT22;14648;49.730;8.614;2023-09-19T00:11:26;18.50;65.60
27114;DHT22;14648;49.730;8.614;2023-09-19T00:13:52;18.50;65.60
27114;DHT22;14648;49.730;8.614;2023-09-19T00:16:18;18.60;65.60
27114;DHT22;14648;49.730;8.614;2023-09-19T00:18:47;18.60;65.60
27114;DHT22;14648;49.730;8.614;2023-09-19T00:21:14;18.60;65.60
27114;DHT22;14648;49.730;8.614;2023-09-19T00:23:40;18.60;65.70
27114;DHT22;14648;49.730;8.614;2023-09-19T00:26:07;18.70;65.70
27114;DHT22;14648;49.730;8.614;2023-09-19T00:28:33;18.70;65.70
27114;DHT22;14648;49.730;8.614;2023-09-19T00:30:59;18.70;65.80
27114;DHT22;14648;49.730;8.614;2023-09-19T00:33:27;18.70;65.80
27114;DHT22;14648;49.730;8.614;2023-09-19T00:35:56;18.70;65.80
27114;DHT22;14648;49.730;8.614;2023-09-19T00:38:23;18.60;65.80
27114;DHT22;14648;49.730;8.614;2023-09-19T00:40:53;18.70;66.00
27114;DHT22;14648;49.730;8.614;2023-09-19T00:43:23;18.60;66.00
27114;DHT22;14648;49.730;8.614;2023-09-19T00:45:51;18.60;66.00
27114;DHT22;14648;49.730;8.614;2023-09-19T00:48:20;18.60;66.00
27114;DHT22;14648;49.730;8.614;2023-09-19T00:50:47;18.60;66.20
27114;DHT22;14648;49.730;8.614;2023-09-19T00:53:19;18.60;66.30
27114;DHT22;14648;49.730;8.614;2023-09-19T00:55:47;18.50;66.40
27114;DHT22;14648;49.730;8.614;2023-09-19T00:58:13;18.60;66.40
27114;DHT22;14648;49.730;8.614;2023-09-19T01:00:40;18.60;66.30
27114;DHT22;14648;49.730;8.614;2023-09-19T01:03:06;18.60;66.40
27114;DHT22;14648;49.730;8.614;2023-09-19T01:05:33;18.60;66.40
27114;DHT22;14648;49.730;8.614;2023-09-19T01:07:59;18.60;66.50
27114;DHT22;14648;49.730;8.614;2023-09-19T01:10:25;18.60;66.50
27114;DHT22;14648;49.730;8.614;2023-09-19T01:13:16;18.60;66.50
27114;DHT22;14648;49.730;8.614;2023-09-19T01:27:42;18.60;66.70
27114;DHT22;14648;49.730;8.614;2023-09-19T01:30:34;18.50;66.60
27114;DHT22;14648;49.730;8.614;2023-09-19T01:33:02;18.50;66.80
27114;DHT22;14648;49.730;8.614;2023-09-19T01:35:29;18.40;66.80
27114;DHT22;14648;49.730;8.614;2023-09-19T01:37:55;18.40;67.00
27114;DHT22;14648;49.730;8.614;2023-09-19T01:40:21;18.40;67.00
27114;DHT22;14648;49.730;8.614;2023-09-19T01:43:19;18.40;67.20
27114;DHT22;14648;49.730;8.614;2023-09-19T01:46:16;18.40;67.30
27114;DHT22;14648;49.730;8.614;2023-09-19T01:51:56;18.40;67.30
27114;DHT22;14648;49.730;8.614;2023-09-19T01:54:33;18.40;67.30
27114;DHT22;14648;49.730;8.614;2023-09-19T01:57:27;18.40;67.30
27114;DHT22;14648;49.730;8.614;2023-09-19T02:00:15;18.40;67.40
27114;DHT22;14648;49.730;8.614;2023-09-19T02:02:44;18.40;67.50
27114;DHT22;14648;49.730;8.614;2023-09-19T02:05:10;18.40;67.50
27114;DHT22;14648;49.730;8.614;2023-09-19T02:07:38;18.30;67.60
27114;DHT22;14648;49.730;8.614;2023-09-19T02:10:05;18.40;67.70
27114;DHT22;14648;49.730;8.614;2023-09-19T02:12:32;18.40;67.70
27114;DHT22;14648;49.730;8.614;2023-09-19T02:14:58;18.40;67.60
27114;DHT22;14648;49.730;8.614;2023-09-19T02:17:27;18.40;67.70
27114;DHT22;14648;49.730;8.614;2023-09-19T02:19:54;18.40;68.50
27114;DHT22;14648;49.730;8.614;2023-09-19T02:22:23;18.40;67.90
27114;DHT22;14648;49.730;8.614;2023-09-19T02:24:50;18.40;67.90
27114;DHT22;14648;49.730;8.614;2023-09-19T02:27:16;18.40;67.90
27114;DHT22;14648;49.730;8.614;2023-09-19T02:29:45;18.40;68.00
27114;DHT22;14648;49.730;8.614;2023-09-19T02:32:11;18.40;68.10
27114;DHT22;14648;49.730;8.614;2023-09-19T02:34:37;18.40;68.20
27114;DHT22;14648;49.730;8.614;2023-09-19T02:37:07;18.40;68.30
27114;DHT22;14648;49.730;8.614;2023-09-19T02:39:34;18.40;68.30
27114;DHT22;14648;49.730;8.614;2023-09-19T02:42:00;18.40;68.30
27114;DHT22;14648;49.730;8.614;2023-09-19T02:44:26;18.30;68.50
27114;DHT22;14648;49.730;8.614;2023-09-19T02:46:52;18.30;68.50
27114;DHT22;14648;49.730;8.614;2023-09-19T02:49:18;18.40;68.50
27114;DHT22;14648;49.730;8.614;2023-09-19T02:51:44;18.30;68.60
27114;DHT22;14648;49.730;8.614;2023-09-19T02:54:11;18.30;68.60
27114;DHT22;14648;49.730;8.614;2023-09-19T02:56:37;18.30;68.70
27114;DHT22;14648;49.730;8.614;2023-09-19T02:59:03;18.30;68.70
27114;DHT22;14648;49.730;8.614;2023-09-19T03:01:29;18.30;68.70
27114;DHT22;14648;49.730;8.614;2023-09-19T03:03:55;18.30;68.80
27114;DHT22;14648;49.730;8.614;2023-09-19T03:06:21;18.20;68.70
27114;DHT22;14648;49.730;8.614;2023-09-19T03:08:47;18.30;68.80
27114;DHT22;14648;49.730;8.614;2023-09-19T03:11:15;18.20;68.80
27114;DHT22;14648;49.730;8.614;2023-09-19T03:13:44;18.20;68.70
27114;DHT22;14648;49.730;8.614;2023-09-19T03:16:11;18.20;68.80
27114;DHT22;14648;49.730;8.614;2023-09-19T03:18:37;18.20;68.80
27114;DHT22;14648;49.730;8.614;2023-09-19T03:21:03;18.20;68.80
27114;DHT22;14648;49.730;8.614;2023-09-19T03:23:29;18.20;68.80
27114;DHT22;14648;49.730;8.614;2023-09-19T03:25:55;18.20;68.90
27114;DHT22;14648;49.730;8.614;2023-09-19T03:28:22;18.20;68.90
27114;DHT22;14648;49.730;8.614;2023-09-19T03:31:05;18.20;68.90
27114;DHT22;14648;49.730;8.614;2023-09-19T03:33:31;18.10;69.00
27114;DHT22;14648;49.730;8.614;2023-09-19T03:35:59;18.20;68.90
27114;DHT22;14648;49.730;8.614;2023-09-19T03:38:26;18.20;68.90
27114;DHT22;14648;49.730;8.614;2023-09-19T03:40:54;18.20;68.90
27114;DHT22;14648;49.730;8.614;2023-09-19T03:43:19;18.20;68.90
27114;DHT22;14648;49.730;8.614;2023-09-19T03:45:45;18.20;68.90
27114;DHT22;14648;49.730;8.614;2023-09-19T03:48:12;18.20;68.90
27114;DHT22;14648;49.730;8.614;2023-09-19T03:50:38;18.20;69.00
27114;DHT22;14648;49.730;8.614;2023-09-19T03:53:04;18.20;68.90
27114;DHT22;14648;49.730;8.614;2023-09-19T03:55:32;18.10;69.00
27114;DHT22;14648;49.730;8.614;2023-09-19T03:58:01;18.10;69.00
27114;DHT22;14648;49.730;8.614;2023-09-19T04:00:27;18.10;69.00
27114;DHT22;14648;49.730;8.614;2023-09-19T04:02:55;18.10;69.10
27114;DHT22;14648;49.730;8.614;2023-09-19T04:05:23;18.10;69.10
27114;DHT22;14648;49.730;8.614;2023-09-19T04:07:49;18.10;69.10
27114;DHT22;14648;49.730;8.614;2023-09-19T04:10:19;18.10;69.10
27114;DHT22;14648;49.730;8.614;2023-09-19T04:12:52;18.10;69.10
27114;DHT22;14648;49.730;8.614;2023-09-19T04:15:18;18.10;69.20
27114;DHT22;14648;49.730;8.614;2023-09-19T04:17:44;18.10;69.20
27114;DHT22;14648;49.730;8.614;2023-09-19T04:20:10;18.10;69.20
27114;DHT22;14648;49.730;8.614;2023-09-19T04:22:38;18.00;69.10
27114;DHT22;14648;49.730;8.614;2023-09-19T04:25:05;18.00;69.20
27114;DHT22;14648;49.730;8.614;2023-09-19T04:27:32;18.00;69.20
27114;DHT22;14648;49.730;8.614;2023-09-19T04:29:58;18.00;69.20
27114;DHT22;14648;49.730;8.614;2023-09-19T04:32:28;17.90;69.20
27114;DHT22;14648;49.730;8.614;2023-09-19T04:34:54;17.90;69.20
27114;DHT22;14648;49.730;8.614;2023-09-19T04:37:20;17.90;69.30
27114;DHT22;14648;49.730;8.614;2023-09-19T04:39:47;17.90;69.30
27114;DHT22;14648;49.730;8.614;2023-09-19T04:42:13;17.90;69.30
27114;DHT22;14648;49.730;8.614;2023-09-19T04:44:40;17.90;69.30
27114;DHT22;14648;49.730;8.614;2023-09-19T04:47:06;17.80;69.20
27114;DHT22;14648;49.730;8.614;2023-09-19T04:49:31;17.80;69.20
27114;DHT22;14648;49.730;8.614;2023-09-19T04:51:57;17.80;69.20
27114;DHT22;14648;49.730;8.614;2023-09-19T04:54:23;17.80;69.20
27114;DHT22;14648;49.730;8.614;2023-09-19T04:56:48;17.80;69.10
27114;DHT22;14648;49.730;8.614;2023-09-19T04:59:14;17.80;69.10
27114;DHT22;14648;49.730;8.614;2023-09-19T05:01:41;17.70;69.10
27114;DHT22;14648;49.730;8.614;2023-09-19T05:04:06;17.70;69.20
27114;DHT22;14648;49.730;8.614;2023-09-19T05:06:32;17.70;69.10
27114;DHT22;14648;49.730;8.614;2023-09-19T05:08:59;17.70;69.10
27114;DHT22;14648;49.730;8.614;2023-09-19T05:11:25;17.70;69.00
27114;DHT22;14648;49.730;8.614;2023-09-19T05:13:51;17.70;68.90
27114;DHT22;14648;49.730;8.614;2023-09-19T05:16:18;17.60;68.80
27114;DHT22;14648;49.730;8.614;2023-09-19T05:18:44;17.60;68.80
27114;DHT22;14648;49.730;8.614;2023-09-19T05:21:09;17.60;68.80
27114;DHT22;14648;49.730;8.614;2023-09-19T05:23:35;17.60;68.80
27114;DHT22;14648;49.730;8.614;2023-09-19T05:26:02;17.60;68.70
27114;DHT22;14648;49.730;8.614;2023-09-19T05:28:29;17.60;68.70
27114;DHT22;14648;49.730;8.614;2023-09-19T05:30:55;17.70;68.80
27114;DHT22;14648;49.730;8.614;2023-09-19T05:33:21;17.60;68.70
27114;DHT22;14648;49.730;8.614;2023-09-19T05:35:50;17.60;68.50
27114;DHT22;14648;49.730;8.614;2023-09-19T05:38:15;17.60;68.50
27114;DHT22;14648;49.730;8.614;2023-09-19T05:40:45;17.60;68.50
27114;DHT22;14648;49.730;8.614;2023-09-19T05:43:10;17.60;68.40
27114;DHT22;14648;49.730;8.614;2023-09-19T05:45:36;17.60;68.40
27114;DHT22;14648;49.730;8.614;2023-09-19T05:48:13;17.60;68.40
27114;DHT22;14648;49.730;8.614;2023-09-19T05:50:41;17.60;68.40
27114;DHT22;14648;49.730;8.614;2023-09-19T05:53:07;17.50;68.30
27114;DHT22;14648;49.730;8.614;2023-09-19T05:55:35;17.60;68.30
27114;DHT22;14648;49.730;8.614;2023-09-19T05:58:01;17.60;68.20
27114;DHT22;14648;49.730;8.614;2023-09-19T06:00:28;17.50;69.00
27114;DHT22;14648;49.730;8.614;2023-09-19T06:02:59;17.50;68.20
27114;DHT22;14648;49.730;8.614;2023-09-19T06:05:26;17.50;68.20
27114;DHT22;14648;49.730;8.614;2023-09-19T06:07:52;17.50;68.90
27114;DHT22;14648;49.730;8.614;2023-09-19T06:10:19;17.50;68.10
27114;DHT22;14648;49.730;8.614;2023-09-19T06:12:46;17.50;68.10
27114;DHT22;14648;49.730;8.614;2023-09-19T06:15:15;17.50;68.00
27114;DHT22;14648;49.730;8.614;2023-09-19T06:17:52;17.60;68.00
27114;DHT22;14648;49.730;8.614;2023-09-19T06:20:22;17.60;68.00
27114;DHT22;14648;49.730;8.614;2023-09-19T06:22:51;17.50;67.90
27114;DHT22;14648;49.730;8.614;2023-09-19T06:25:17;17.60;67.80
27114;DHT22;14648;49.730;8.614;2023-09-19T06:27:48;17.60;67.80
27114;DHT22;14648;49.730;8.614;2023-09-19T06:30:18;17.60;67.80
27114;DHT22;14648;49.730;8.614;2023-09-19T06:32:44;17.60;67.60
27114;DHT22;14648;49.730;8.614;2023-09-19T06:35:14;17.60;67.60
27114;DHT22;14648;49.730;8.614;2023-09-19T06:37:41;17.60;67.50
27114;DHT22;14648;49.730;8.614;2023-09-19T06:40:11;17.70;67.60
27114;DHT22;14648;49.730;8.614;2023-09-19T06:42:44;17.70;67.60
27114;DHT22;14648;49.730;8.614;2023-09-19T06:45:14;17.70;67.50
27114;DHT22;14648;49.730;8.614;2023-09-19T06:47:51;17.70;67.40
27114;DHT22;14648;49.730;8.614;2023-09-19T06:50:18;17.80;67.40
27114;DHT22;14648;49.730;8.614;2023-09-19T06:52:46;17.80;67.40
27114;DHT22;14648;49.730;8.614;2023-09-19T06:55:16;17.80;67.30
27114;DHT22;14648;49.730;8.614;2023-09-19T06:57:44;17.80;67.30
27114;DHT22;14648;49.730;8.614;2023-09-19T07:00:11;17.90;67.30
27114;DHT22;14648;49.730;8.614;2023-09-19T07:02:58;18.00;67.30
27114;DHT22;14648;49.730;8.614;2023-09-19T07:05:30;18.00;67.20
27114;DHT22;14648;49.730;8.614;2023-09-19T07:07:57;18.00;67.10
27114;DHT22;14648;49.730;8.614;2023-09-19T07:10:25;18.00;67.20
27114;DHT22;14648;49.730;8.614;2023-09-19T07:12:59;18.10;67.20
27114;DHT22;14648;49.730;8.614;2023-09-19T07:15:27;18.10;67.10
27114;DHT22;14648;49.730;8.614;2023-09-19T07:17:54;18.00;66.80
27114;DHT22;14648;49.730;8.614;2023-09-19T07:20:21;18.10;66.90
27114;DHT22;14648;49.730;8.614;2023-09-19T07:22:51;18.10;66.80
27114;DHT22;14648;49.730;8.614;2023-09-19T07:25:17;18.10;66.80
27114;DHT22;14648;49.730;8.614;2023-09-19T07:27:43;18.10;66.60
27114;DHT22;14648;49.730;8.614;2023-09-19T07:30:10;18.20;66.50
27114;DHT22;14648;49.730;8.614;2023-09-19T07:32:37;18.20;66.40
27114;DHT22;14648;49.730;8.614;2023-09-19T07:35:04;18.20;66.40
27114;DHT22;14648;49.730;8.614;2023-09-19T07:37:34;18.30;66.40
27114;DHT22;14648;49.730;8.614;2023-09-19T07:40:00;18.30;66.20
27114;DHT22;14648;49.730;8.614;2023-09-19T07:42:33;18.30;66.20
27114;DHT22;14648;49.730;8.614;2023-09-19T07:45:01;18.40;66.00
27114;DHT22;14648;49.730;8.614;2023-09-19T07:47:27;18.40;65.70
27114;DHT22;14648;49.730;8.614;2023-09-19T07:49:55;18.40;65.50
27114;DHT22;14648;49.730;8.614;2023-09-19T07:52:21;18.40;65.40
27114;DHT22;14648;49.730;8.614;2023-09-19T07:54:48;18.50;65.40
27114;DHT22;14648;49.730;8.614;2023-09-19T07:57:17;18.50;65.30
27114;DHT22;14648;49.730;8.614;2023-09-19T07:59:43;18.50;65.20
27114;DHT22;14648;49.730;8.614;2023-09-19T08:02:08;18.50;65.20
27114;DHT22;14648;49.730;8.614;2023-09-19T08:04:44;18.50;65.00
27114;DHT22;14648;49.730;8.614;2023-09-19T08:07:14;18.50;65.00
27114;DHT22;14648;49.730;8.614;2023-09-19T08:09:40;18.50;64.80
27114;DHT22;14648;49.730;8.614;2023-09-19T08:12:07;18.60;64.80
27114;DHT22;14648;49.730;8.614;2023-09-19T08:14:36;18.60;64.80
27114;DHT22;14648;49.730;8.614;2023-09-19T08:17:03;18.70;64.70
27114;DHT22;14648;49.730;8.614;2023-09-19T08:19:31;18.70;64.60
27114;DHT22;14648;49.730;8.614;2023-09-19T08:21:58;18.70;64.50
27114;DHT22;14648;49.730;8.614;2023-09-19T08:24:25;18.70;64.40
27114;DHT22;14648;49.730;8.614;2023-09-19T08:26:54;18.70;64.40
27114;DHT22;14648;49.730;8.614;2023-09-19T08:29:21;18.80;64.20
27114;DHT22;14648;49.730;8.614;2023-09-19T08:31:54;18.80;64.10
27114;DHT22;14648;49.730;8.614;2023-09-19T08:34:21;18.80;63.90
27114;DHT22;14648;49.730;8.614;2023-09-19T08:36:50;18.80;63.80
27114;DHT22;14648;49.730;8.614;2023-09-19T08:39:16;18.90;63.70
27114;DHT22;14648;49.730;8.614;2023-09-19T08:41:43;18.90;63.50
27114;DHT22;14648;49.730;8.614;2023-09-19T08:44:09;19.00;63.30
27114;DHT22;14648;49.730;8.614;2023-09-19T08:46:37;19.10;63.20
27114;DHT22;14648;49.730;8.614;2023-09-19T08:49:45;19.10;62.90
27114;DHT22;14648;49.730;8.614;2023-09-19T08:52:27;19.20;62.60
27114;DHT22;14648;49.730;8.614;2023-09-19T08:54:59;19.40;62.40
27114;DHT22;14648;49.730;8.614;2023-09-19T08:57:33;19.40;62.00
27114;DHT22;14648;49.730;8.614;2023-09-19T09:00:02;19.40;62.00
27114;DHT22;14648;49.730;8.614;2023-09-19T09:02:40;19.50;61.90
27114;DHT22;14648;49.730;8.614;2023-09-19T09:05:08;19.60;61.50
27114;DHT22;14648;49.730;8.614;2023-09-19T09:07:36;19.60;61.20
27114;DHT22;14648;49.730;8.614;2023-09-19T09:10:05;19.70;61.20
27114;DHT22;14648;49.730;8.614;2023-09-19T09:12:33;19.70;61.10
27114;DHT22;14648;49.730;8.614;2023-09-19T09:15:02;19.80;60.70
27114;DHT22;14648;49.730;8.614;2023-09-19T09:17:29;19.80;60.50
27114;DHT22;14648;49.730;8.614;2023-09-19T09:19:55;19.80;60.50
27114;DHT22;14648;49.730;8.614;2023-09-19T09:22:22;19.80;60.10
27114;DHT22;14648;49.730;8.614;2023-09-19T09:24:56;19.80;60.00
27114;DHT22;14648;49.730;8.614;2023-09-19T09:27:31;19.80;59.80
27114;DHT22;14648;49.730;8.614;2023-09-19T09:29:59;19.80;59.80
27114;DHT22;14648;49.730;8.614;2023-09-19T09:32:29;19.90;59.80
27114;DHT22;14648;49.730;8.614;2023-09-19T09:35:00;19.90;59.70
27114;DHT22;14648;49.730;8.614;2023-09-19T09:37:27;20.00;59.60
27114;DHT22;14648;49.730;8.614;2023-09-19T09:40:03;20.10;59.40
27114;DHT22;14648;49.730;8.614;2023-09-19T09:42:45;20.20;59.20
27114;DHT22;14648;49.730;8.614;2023-09-19T09:45:24;20.30;59.20
27114;DHT22;14648;49.730;8.614;2023-09-19T09:47:59;20.30;58.70
27114;DHT22;14648;49.730;8.614;2023-09-19T09:50:31;20.30;58.60
27114;DHT22;14648;49.730;8.614;2023-09-19T09:56:06;20.30;58.10
27114;DHT22;14648;49.730;8.614;2023-09-19T09:58:49;20.40;57.60
27114;DHT22;14648;49.730;8.614;2023-09-19T10:01:17;20.40;57.40
27114;DHT22;14648;49.730;8.614;2023-09-19T10:03:44;20.40;57.30
27114;DHT22;14648;49.730;8.614;2023-09-19T10:06:16;20.50;57.20
27114;DHT22;14648;49.730;8.614;2023-09-19T10:08:59;20.50;57.10
27114;DHT22;14648;49.730;8.614;2023-09-19T10:11:48;20.50;56.70
27114;DHT22;14648;49.730;8.614;2023-09-19T10:14:25;20.60;56.60
27114;DHT22;14648;49.730;8.614;2023-09-19T10:16:57;20.70;56.40
27114;DHT22;14648;49.730;8.614;2023-09-19T10:19:46;20.80;56.40
27114;DHT22;14648;49.730;8.614;2023-09-19T10:22:23;20.90;56.10
27114;DHT22;14648;49.730;8.614;2023-09-19T10:24:50;21.00;56.00
27114;DHT22;14648;49.730;8.614;2023-09-19T10:27:20;21.00;55.70
27114;DHT22;14648;49.730;8.614;2023-09-19T10:29:49;20.90;55.70
27114;DHT22;14648;49.730;8.614;2023-09-19T10:32:19;20.90;55.70
27114;DHT22;14648;49.730;8.614;2023-09-19T10:34:47;21.00;55.60
27114;DHT22;14648;49.730;8.614;2023-09-19T10:37:16;21.00;55.30
27114;DHT22;14648;49.730;8.614;2023-09-19T10:39:46;21.00;54.90
27114;DHT22;14648;49.730;8.614;2023-09-19T10:42:18;21.10;54.80
27114;DHT22;14648;49.730;8.614;2023-09-19T10:44:46;21.20;55.00
27114;DHT22;14648;49.730;8.614;2023-09-19T10:47:14;21.20;54.60
27114;DHT22;14648;49.730;8.614;2023-09-19T10:49:45;21.40;54.40
27114;DHT22;14648;49.730;8.614;2023-09-19T10:52:17;21.40;54.10
27114;DHT22;14648;49.730;8.614;2023-09-19T10:54:47;21.30;54.00
27114;DHT22;14648;49.730;8.614;2023-09-19T10:57:26;21.20;54.10
27114;DHT22;14648;49.730;8.614;2023-09-19T11:00:07;21.30;54.20
27114;DHT22;14648;49.730;8.614;2023-09-19T11:03:23;21.30;54.00
27114;DHT22;14648;49.730;8.614;2023-09-19T11:06:05;21.50;54.00
27114;DHT22;14648;49.730;8.614;2023-09-19T11:09:10;21.70;53.40
27114;DHT22;14648;49.730;8.614;2023-09-19T11:11:48;21.80;53.40
27114;DHT22;14648;49.730;8.614;2023-09-19T11:30:51;22.70;52.40
27114;DHT22;14648;49.730;8.614;2023-09-19T11:33:22;22.60;52.70
27114;DHT22;14648;49.730;8.614;2023-09-19T11:46:55;22.90;51.40
27114;DHT22;14648;49.730;8.614;2023-09-19T11:49:29;23.00;51.20
27114;DHT22;14648;49.730;8.614;2023-09-19T11:52:01;23.00;50.80
27114;DHT22;14648;49.730;8.614;2023-09-19T11:54:31;23.00;50.80
27114;DHT22;14648;49.730;8.614;2023-09-19T11:56:59;23.00;50.70
27114;DHT22;14648;49.730;8.614;2023-09-19T11:59:26;23.00;50.40
27114;DHT22;14648;49.730;8.614;2023-09-19T12:02:07;22.90;50.30
27114;DHT22;14648;49.730;8.614;2023-09-19T12:07:10;23.00;50.10
27114;DHT22;14648;49.730;8.614;2023-09-19T12:09:41;23.00;49.70
27114;DHT22;14648;49.730;8.614;2023-09-19T12:12:19;23.00;49.80
27114;DHT22;14648;49.730;8.614;2023-09-19T12:14:49;23.20;49.70
27114;DHT22;14648;49.730;8.614;2023-09-19T12:17:18;23.30;49.60
27114;DHT22;14648;49.730;8.614;2023-09-19T12:19:52;23.40;49.20
27114;DHT22;14648;49.730;8.614;2023-09-19T12:22:21;23.40;48.90
27114;DHT22;14648;49.730;8.614;2023-09-19T12:24:47;23.50;49.00
27114;DHT22;14648;49.730;8.614;2023-09-19T12:27:14;23.50;48.90
27114;DHT22;14648;49.730;8.614;2023-09-19T12:29:47;23.60;48.60
27114;DHT22;14648;49.730;8.614;2023-09-19T12:32:34;23.60;48.20
27114;DHT22;14648;49.730;8.614;2023-09-19T12:35:00;23.60;48.20
27114;DHT22;14648;49.730;8.614;2023-09-19T12:37:32;23.60;48.30
27114;DHT22;14648;49.730;8.614;2023-09-19T12:40:08;23.60;48.10
27114;DHT22;14648;49.730;8.614;2023-09-19T12:42:46;23.60;47.80
27114;DHT22;14648;49.730;8.614;2023-09-19T12:45:14;23.80;47.40
27114;DHT22;14648;49.730;8.614;2023-09-19T12:48:23;23.90;47.70
27114;DHT22;14648;49.730;8.614;2023-09-19T12:51:06;24.00;47.40
27114;DHT22;14648;49.730;8.614;2023-09-19T12:53:36;24.00;47.20
27114;DHT22;14648;49.730;8.614;2023-09-19T12:56:10;24.20;47.40
27114;DHT22;14648;49.730;8.614;2023-09-19T12:58:57;24.30;47.20
27114;DHT22;14648;49.730;8.614;2023-09-19T13:01:28;24.40;46.80
27114;DHT22;14648;49.730;8.614;2023-09-19T13:04:14;24.40;47.10
27114;DHT22;14648;49.730;8.614;2023-09-19T13:06:55;24.50;47.00
27114;DHT22;14648;49.730;8.614;2023-09-19T13:09:26;24.60;46.70
27114;DHT22;14648;49.730;8.614;2023-09-19T13:12:04;24.60;46.30
27114;DHT22;14648;49.730;8.614;2023-09-19T13:14:32;24.50;46.10
27114;DHT22;14648;49.730;8.614;2023-09-19T13:17:03;24.40;45.90
27114;DHT22;14648;49.730;8.614;2023-09-19T13:19:51;24.40;45.90
27114;DHT22;14648;49.730;8.614;2023-09-19T13:22:44;24.30;45.70
27114;DHT22;14648;49.730;8.614;2023-09-19T13:25:16;24.30;45.50
27114;DHT22;14648;49.730;8.614;2023-09-19T13:27:53;24.30;45.50
27114;DHT22;14648;49.730;8.614;2023-09-19T13:30:22;24.20;45.40
27114;DHT22;14648;49.730;8.614;2023-09-19T13:32:51;24.00;45.30
27114;DHT22;14648;49.730;8.614;2023-09-19T13:35:18;24.00;45.20
27114;DHT22;14648;49.730;8.614;2023-09-19T13:37:45;24.00;45.00
27114;DHT22;14648;49.730;8.614;2023-09-19T13:40:15;24.00;44.90
27114;DHT22;14648;49.730;8.614;2023-09-19T13:42:42;23.90;44.80
27114;DHT22;14648;49.730;8.614;2023-09-19T13:45:08;23.90;44.80
27114;DHT22;14648;49.730;8.614;2023-09-19T13:47:37;23.90;44.80
27114;DHT22;14648;49.730;8.614;2023-09-19T13:50:04;24.00;44.80
27114;DHT22;14648;49.730;8.614;2023-09-19T13:52:31;24.10;44.70
27114;DHT22;14648;49.730;8.614;2023-09-19T13:54:58;24.20;44.60
27114;DHT22;14648;49.730;8.614;2023-09-19T13:57:27;24.40;44.60
27114;DHT22;14648;49.730;8.614;2023-09-19T13:59:54;24.40;44.60
27114;DHT22;14648;49.730;8.614;2023-09-19T14:02:21;24.40;44.50
27114;DHT22;14648;49.730;8.614;2023-09-19T14:04:50;24.40;44.10
27114;DHT22;14648;49.730;8.614;2023-09-19T14:07:17;24.30;44.10
27114;DHT22;14648;49.730;8.614;2023-09-19T14:09:44;24.30;44.30
27114;DHT22;14648;49.730;8.614;2023-09-19T14:12:10;24.30;44.10
27114;DHT22;14648;49.730;8.614;2023-09-19T14:14:36;24.30;44.00
27114;DHT22;14648;49.730;8.614;2023-09-19T14:17:05;24.30;44.10
27114;DHT22;14648;49.730;8.614;2023-09-19T14:19:33;24.30;44.10
27114;DHT22;14648;49.730;8.614;2023-09-19T14:21:58;24.20;43.80
27114;DHT22;14648;49.730;8.614;2023-09-19T14:24:25;24.20;43.80
27114;DHT22;14648;49.730;8.614;2023-09-19T14:26:51;24.10;43.90
27114;DHT22;14648;49.730;8.614;2023-09-19T14:29:17;24.10;43.80
27114;DHT22;14648;49.730;8.614;2023-09-19T14:31:43;24.10;43.70
27114;DHT22;14648;49.730;8.614;2023-09-19T14:34:09;24.10;43.70
27114;DHT22;14648;49.730;8.614;2023-09-19T14:36:37;24.10;43.60
27114;DHT22;14648;49.730;8.614;2023-09-19T14:39:04;23.90;43.40
27114;DHT22;14648;49.730;8.614;2023-09-19T14:41:30;23.90;43.50
27114;DHT22;14648;49.730;8.614;2023-09-19T14:43:56;23.80;43.50
27114;DHT22;14648;49.730;8.614;2023-09-19T14:46:22;23.70;43.50
27114;DHT22;14648;49.730;8.614;2023-09-19T14:48:51;23.70;43.50
27114;DHT22;14648;49.730;8.614;2023-09-19T14:51:17;23.60;44.00
27114;DHT22;14648;49.730;8.614;2023-09-19T14:53:44;23.60;43.40
27114;DHT22;14648;49.730;8.614;2023-09-19T14:56:11;23.50;43.40
27114;DHT22;14648;49.730;8.614;2023-09-19T14:58:38;23.50;43.50
27114;DHT22;14648;49.730;8.614;2023-09-19T15:01:06;23.50;43.40
27114;DHT22;14648;49.730;8.614;2023-09-19T15:03:36;23.50;43.40
27114;DHT22;14648;49.730;8.614;2023-09-19T15:06:10;23.40;43.40
27114;DHT22;14648;49.730;8.614;2023-09-19T15:08:40;23.40;43.30
27114;DHT22;14648;49.730;8.614;2023-09-19T15:11:11;23.30;43.40
27114;DHT22;14648;49.730;8.614;2023-09-19T15:13:38;23.30;43.50
27114;DHT22;14648;49.730;8.614;2023-09-19T15:16:06;23.30;43.50
27114;DHT22;14648;49.730;8.614;2023-09-19T15:18:37;23.30;43.50
27114;DHT22;14648;49.730;8.614;2023-09-19T15:21:04;23.30;43.50
27114;DHT22;14648;49.730;8.614;2023-09-19T15:23:30;23.40;43.40
27114;DHT22;14648;49.730;8.614;2023-09-19T15:26:07;23.50;44.30
27114;DHT22;14648;49.730;8.614;2023-09-19T15:28:37;23.60;43.40
27114;DHT22;14648;49.730;8.614;2023-09-19T15:31:04;23.70;43.30
27114;DHT22;14648;49.730;8.614;2023-09-19T15:33:35;23.80;43.10
27114;DHT22;14648;49.730;8.614;2023-09-19T15:36:04;23.90;43.20
27114;DHT22;14648;49.730;8.614;2023-09-19T15:38:32;23.90;43.20
27114;DHT22;14648;49.730;8.614;2023-09-19T15:41:22;23.90;43.20
27114;DHT22;14648;49.730;8.614;2023-09-19T15:43:49;23.90;43.20
27114;DHT22;14648;49.730;8.614;2023-09-19T15:46:15;23.90;43.30
27114;DHT22;14648;49.730;8.614;2023-09-19T15:48:41;23.80;43.10
27114;DHT22;14648;49.730;8.614;2023-09-19T15:51:07;23.80;43.90
27114;DHT22;14648;49.730;8.614;2023-09-19T15:53:43;23.80;43.10
27114;DHT22;14648;49.730;8.614;2023-09-19T15:56:10;23.80;43.00
27114;DHT22;14648;49.730;8.614;2023-09-19T15:58:37;23.80;43.10
27114;DHT22;14648;49.730;8.614;2023-09-19T16:01:07;23.70;43.10
27114;DHT22;14648;49.730;8.614;2023-09-19T16:03:47;23.70;43.10
27114;DHT22;14648;49.730;8.614;2023-09-19T16:06:20;23.60;43.00
27114;DHT22;14648;49.730;8.614;2023-09-19T16:08:50;23.50;43.10
27114;DHT22;14648;49.730;8.614;2023-09-19T16:11:17;23.40;43.10
27114;DHT22;14648;49.730;8.614;2023-09-19T16:13:45;23.30;43.10
27114;DHT22;14648;49.730;8.614;2023-09-19T16:16:13;23.30;43.10
27114;DHT22;14648;49.730;8.614;2023-09-19T16:18:48;23.20;42.90
27114;DHT22;14648;49.730;8.614;2023-09-19T16:21:15;23.10;42.90
27114;DHT22;14648;49.730;8.614;2023-09-19T16:23:48;23.10;43.10
27114;DHT22;14648;49.730;8.614;2023-09-19T16:26:16;23.10;43.00
27114;DHT22;14648;49.730;8.614;2023-09-19T16:28:47;23.00;43.00
27114;DHT22;14648;49.730;8.614;2023-09-19T16:31:15;23.00;43.00
27114;DHT22;14648;49.730;8.614;2023-09-19T16:33:43;22.90;43.00
27114;DHT22;14648;49.730;8.614;2023-09-19T16:36:15;22.80;43.00